• +62 31 8667540

  • +62 31 8668989 (24 jam)

  • Stasiun Meteorologi Juanda

  • Bandar Udara Juanda - Sidoarjo

  • 08:00 - 16:00

  • Senin sampai Jumat

METAR 3 JAM TERAKHIR

Data at: 1019 UTC 26 Jun 2017

WARR 261000Z 09010KT 9999 SCT020CB 29/24 Q1009 NOSIG
WARR 260930Z 07008KT 9999 SCT020CB 29/24 Q1009 NOSIG
WARR 260900Z 07009KT 9999 SCT020CB 29/24 Q1009 NOSIG
WARR 260830Z 07007KT 9999 SCT020CB 29/24 Q1009 NOSIG
WARR 260800Z 06008KT 9999 SCT020CB 29/24 Q1009 NOSIG
WARR 260730Z 08010KT 9999 SCT020CB 29/24 Q1008 NOSIG

Peringatan Dini Cuaca Hari Ini

Waspadai Hujan Intensitas Sedang-Lebat disertai Angin Kencang sesaat pada malam hari atau dini hari di wilayah : Sampang, pamekasan, Sumenep, Banyuwangi, Probolinggo, Lumajang, Bawean.